Time;durP1;ratioP1;P1;durP2;ratioP2;P2;SDS_P1;SDS_P2;PMS_P1;PMS_P2;Temp;Humidity;BMP_temperature;BMP_pressure;BME280_temperature;BME280_humidity;BME280_pressure;Samples;Min_cycle;Max_cycle;Signal;HPM_P1;HPM_P2
2022/10/02 00:02:35;;;;;;;6.00;2.93;;;18.70;67.50;;;;;;5041308;28;20930;-49
2022/10/02 00:05:14;;;;;;;4.10;2.17;;;18.70;67.50;;;;;;5043052;28;20529;-49
2022/10/02 00:07:47;;;;;;;3.20;1.93;;;18.70;67.40;;;;;;5040427;28;20447;-49
2022/10/02 00:10:35;;;;;;;3.40;2.10;;;18.70;67.20;;;;;;5046949;28;21740;-50
2022/10/02 00:13:04;;;;;;;2.97;1.47;;;18.80;67.10;;;;;;5044752;28;20454;-52
2022/10/02 00:15:32;;;;;;;7.00;2.20;;;18.80;67.00;;;;;;5039976;28;20547;-48
2022/10/02 00:18:08;;;;;;;4.77;1.90;;;18.80;67.00;;;;;;5046557;28;20801;-48
2022/10/02 00:20:44;;;;;;;3.73;1.80;;;18.80;66.90;;;;;;5041246;28;20443;-49
2022/10/02 00:23:29;;;;;;;5.90;1.70;;;18.80;67.30;;;;;;5039745;28;20466;-49
2022/10/02 00:25:59;;;;;;;4.93;1.87;;;18.80;67.10;;;;;;5047548;28;20518;-47
2022/10/02 00:28:30;;;;;;;5.60;2.57;;;18.80;67.00;;;;;;5050762;28;20466;-52
2022/10/02 00:31:29;;;;;;;6.27;1.87;;;18.70;66.90;;;;;;5055257;28;20541;-51
2022/10/02 00:34:25;;;;;;;5.07;2.00;;;18.70;67.00;;;;;;5041843;28;20447;-51
2022/10/02 00:36:54;;;;;;;3.23;1.47;;;18.80;67.10;;;;;;5041534;28;20975;-48
2022/10/02 00:39:46;;;;;;;5.53;2.57;;;18.60;67.30;;;;;;5038446;28;20467;-50
2022/10/02 00:42:17;;;;;;;3.60;1.63;;;18.60;67.70;;;;;;5039887;28;21260;-49
2022/10/02 00:45:04;;;;;;;5.03;1.87;;;18.60;67.50;;;;;;5038252;28;20546;-49
2022/10/02 00:47:38;;;;;;;4.57;2.07;;;18.50;68.20;;;;;;5047164;28;20544;-50
2022/10/02 00:50:16;;;;;;;2.90;1.60;;;18.60;68.20;;;;;;5036296;28;20445;-51
2022/10/02 00:52:51;;;;;;;5.73;2.40;;;18.60;68.60;;;;;;5045429;28;20490;-51
2022/10/02 00:55:44;;;;;;;7.20;2.10;;;18.60;68.50;;;;;;5045979;28;20465;-51
2022/10/02 00:58:24;;;;;;;4.23;2.23;;;18.60;68.80;;;;;;5034370;28;20855;-51
2022/10/02 01:01:17;;;;;;;5.07;1.77;;;18.70;68.80;;;;;;5041411;28;20524;-49
2022/10/02 01:03:47;;;;;;;8.00;1.93;;;18.70;68.70;;;;;;5033823;28;20458;-52
2022/10/02 01:06:12;;;;;;;5.83;1.87;;;18.70;69.60;;;;;;5031449;28;20532;-48
2022/10/02 01:08:38;;;;;;;7.50;1.90;;;18.70;68.90;;;;;;5039321;28;20479;-48
2022/10/02 01:11:05;;;;;;;5.03;1.93;;;18.70;68.80;;;;;;5045803;28;20189;-51
2022/10/02 01:13:31;;;;;;;3.03;1.83;;;18.80;68.80;;;;;;5043092;28;20196;-50
2022/10/02 01:15:59;;;;;;;4.77;2.30;;;18.70;68.70;;;;;;5046661;28;20443;-53
2022/10/02 01:18:26;;;;;;;5.27;2.13;;;18.60;68.80;;;;;;5041840;28;20205;-53
2022/10/02 01:21:01;;;;;;;7.03;1.77;;;18.50;69.20;;;;;;5044241;28;20446;-53
2022/10/02 01:23:27;;;;;;;3.90;1.77;;;18.50;69.60;;;;;;5040892;28;20588;-52
2022/10/02 01:25:52;;;;;;;4.20;1.77;;;18.40;69.50;;;;;;5041405;28;20486;-52
2022/10/02 01:28:19;;;;;;;7.87;1.70;;;18.10;70.80;;;;;;5044448;28;20603;-50
2022/10/02 01:30:48;;;;;;;4.17;1.77;;;18.10;70.70;;;;;;5051972;28;20193;-52
2022/10/02 01:33:15;;;;;;;2.33;1.70;;;18.10;71.00;;;;;;5045167;28;20579;-52
2022/10/02 01:35:41;;;;;;;5.77;1.50;;;17.90;71.00;;;;;;5042210;28;20478;-48
2022/10/02 01:38:11;;;;;;;2.67;1.80;;;17.80;71.80;;;;;;5042611;28;20435;-52
2022/10/02 01:40:38;;;;;;;3.33;1.37;;;17.90;72.10;;;;;;5047689;28;20454;-53
2022/10/02 01:43:05;;;;;;;5.17;1.50;;;18.00;71.80;;;;;;5043804;28;20962;-51
2022/10/02 01:45:57;;;;;;;4.77;2.07;;;18.10;71.50;;;;;;5044731;28;20483;-53
2022/10/02 01:48:54;;;;;;;3.90;1.40;;;18.20;70.70;;;;;;5044912;28;20442;-48
2022/10/02 01:51:44;;;;;;;2.80;1.40;;;18.40;70.00;;;;;;5035030;28;20574;-52
2022/10/02 01:54:35;;;;;;;6.10;1.97;;;18.50;69.40;;;;;;5041173;28;20478;-52
2022/10/02 01:57:07;;;;;;;3.40;1.70;;;18.50;69.60;;;;;;5044670;28;20500;-48
2022/10/02 01:59:48;;;;;;;3.00;1.93;;;18.60;69.20;;;;;;5040684;28;20449;-52
2022/10/02 02:02:30;;;;;;;3.20;1.73;;;18.70;69.00;;;;;;5047404;28;20454;-52
2022/10/02 02:05:26;;;;;;;3.80;1.73;;;18.70;68.70;;;;;;5041229;28;20487;-52
2022/10/02 02:08:08;;;;;;;3.77;1.60;;;18.80;68.70;;;;;;5047112;28;20887;-51
2022/10/02 02:10:39;;;;;;;4.00;1.40;;;18.80;68.50;;;;;;5046871;28;20485;-49
2022/10/02 02:13:42;;;;;;;2.80;1.57;;;18.90;68.50;;;;;;5046069;28;20446;-48
2022/10/02 02:16:26;;;;;;;4.37;1.90;;;18.90;68.30;;;;;;5043729;28;20450;-49
2022/10/02 02:19:18;;;;;;;5.23;1.37;;;18.90;68.20;;;;;;5050589;28;20434;-52
2022/10/02 02:22:00;;;;;;;3.57;1.93;;;18.90;68.20;;;;;;5049773;28;20808;-52
2022/10/02 02:24:32;;;;;;;4.33;1.70;;;18.90;68.40;;;;;;5041506;28;20516;-48
2022/10/02 02:27:00;;;;;;;4.83;2.00;;;19.00;68.30;;;;;;5052226;28;20514;-52
2022/10/02 02:29:29;;;;;;;5.10;1.93;;;18.90;68.20;;;;;;5044679;28;20489;-52
2022/10/02 02:31:56;;;;;;;2.97;1.60;;;19.00;68.00;;;;;;5039995;28;20468;-51
2022/10/02 02:34:29;;;;;;;3.93;1.60;;;19.00;68.00;;;;;;5046992;28;20509;-48
2022/10/02 02:37:00;;;;;;;6.77;2.07;;;18.90;68.00;;;;;;5042658;28;20461;-51
2022/10/02 02:39:55;;;;;;;5.50;1.93;;;18.90;68.20;;;;;;5039686;28;20416;-51
2022/10/02 02:42:24;;;;;;;3.07;1.30;;;18.90;68.40;;;;;;5038697;28;20443;-52
2022/10/02 02:44:59;;;;;;;6.77;1.83;;;18.70;68.50;;;;;;5048506;28;20976;-48
2022/10/02 02:47:39;;;;;;;7.87;1.80;;;18.80;68.30;;;;;;5040681;28;21224;-51
2022/10/02 02:50:15;;;;;;;6.40;2.10;;;18.80;68.10;;;;;;5042891;28;20456;-48
2022/10/02 02:53:02;;;;;;;5.07;1.73;;;18.70;68.50;;;;;;5045701;28;20451;-47
2022/10/02 02:55:34;;;;;;;3.70;2.17;;;18.80;68.30;;;;;;5029947;28;20838;-49
2022/10/02 02:58:36;;;;;;;6.33;2.07;;;18.80;68.20;;;;;;5047451;28;20455;-48
2022/10/02 03:01:01;;;;;;;8.67;2.03;;;18.80;68.00;;;;;;5049001;28;21040;-47
2022/10/02 03:03:27;;;;;;;8.37;2.13;;;18.80;68.30;;;;;;5046777;28;20518;-48
2022/10/02 03:06:20;;;;;;;4.07;1.70;;;18.80;68.30;;;;;;5044981;28;20225;-48
2022/10/02 03:08:49;;;;;;;7.63;1.93;;;18.70;68.40;;;;;;5047484;28;20224;-49
2022/10/02 03:11:57;;;;;;;4.77;1.97;;;18.60;68.60;;;;;;5046671;28;20450;-47
2022/10/02 03:14:39;;;;;;;8.23;1.93;;;18.60;68.70;;;;;;5052483;28;20469;-49
2022/10/02 03:17:05;;;;;;;3.47;1.80;;;18.70;68.70;;;;;;5050394;28;20529;-48
2022/10/02 03:19:55;;;;;;;9.00;2.20;;;18.70;68.90;;;;;;5049228;28;20446;-49
2022/10/02 03:22:54;;;;;;;3.37;1.60;;;18.70;68.50;;;;;;5046128;28;20189;-47
2022/10/02 03:25:43;;;;;;;2.83;1.70;;;18.70;68.70;;;;;;5039983;28;20489;-48
2022/10/02 03:28:25;;;;;;;5.80;1.90;;;18.70;68.70;;;;;;5036245;28;20790;-48
2022/10/02 03:30:53;;;;;;;5.80;1.80;;;18.70;68.70;;;;;;5052107;28;20525;-52
2022/10/02 03:33:20;;;;;;;4.37;1.60;;;18.80;68.60;;;;;;5050810;28;20509;-49
2022/10/02 03:35:46;;;;;;;7.30;1.90;;;18.80;68.70;;;;;;5052147;28;20427;-48
2022/10/02 03:38:14;;;;;;;5.90;1.50;;;18.80;68.70;;;;;;5044155;28;20424;-48
2022/10/02 03:40:39;;;;;;;6.43;1.40;;;18.90;68.20;;;;;;5047593;28;20843;-48
2022/10/02 03:43:06;;;;;;;4.93;1.80;;;18.90;68.20;;;;;;5045856;28;20539;-49
2022/10/02 03:45:31;;;;;;;4.90;1.83;;;18.90;68.40;;;;;;5051411;28;20255;-53
2022/10/02 03:47:57;;;;;;;6.87;2.17;;;19.00;68.30;;;;;;5040376;28;20472;-48
2022/10/02 03:50:23;;;;;;;7.63;2.77;;;19.00;68.20;;;;;;5038054;28;20216;-48
2022/10/02 03:52:50;;;;;;;8.10;2.03;;;18.90;68.30;;;;;;5040634;28;20193;-49
2022/10/02 03:55:28;;;;;;;6.07;1.73;;;19.00;68.50;;;;;;5049090;28;20280;-48
2022/10/02 03:57:54;;;;;;;3.77;1.50;;;19.00;68.40;;;;;;5050575;28;20500;-47
2022/10/02 04:00:28;;;;;;;3.33;1.67;;;19.00;68.50;;;;;;5049536;28;20527;-48
2022/10/02 04:03:20;;;;;;;4.20;2.00;;;19.00;68.60;;;;;;5047945;28;20530;-47
2022/10/02 04:06:08;;;;;;;3.63;2.60;;;19.00;68.60;;;;;;5027634;28;20487;-50
2022/10/02 04:08:39;;;;;;;6.20;2.27;;;19.00;68.80;;;;;;5047150;28;20450;-51
2022/10/02 04:11:26;;;;;;;8.30;2.20;;;18.90;68.70;;;;;;5041307;28;20447;-48
2022/10/02 04:14:05;;;;;;;4.77;2.10;;;19.00;68.50;;;;;;5042763;28;20502;-50
2022/10/02 04:16:45;;;;;;;3.50;1.60;;;19.00;68.40;;;;;;5038800;28;20481;-47
2022/10/02 04:19:17;;;;;;;5.60;1.90;;;19.00;68.50;;;;;;5044687;28;20500;-47
2022/10/02 04:22:05;;;;;;;17.80;2.50;;;18.90;68.30;;;;;;5045808;28;20447;-48
2022/10/02 04:24:44;;;;;;;13.90;2.00;;;18.80;68.80;;;;;;5039997;28;20474;-48
2022/10/02 04:27:13;;;;;;;4.17;1.50;;;18.80;68.60;;;;;;5038709;28;20448;-50
2022/10/02 04:30:12;;;;;;;7.37;1.63;;;18.80;68.50;;;;;;5045567;28;20482;-47
2022/10/02 04:32:38;;;;;;;5.90;2.23;;;18.70;68.60;;;;;;5035431;28;20953;-48
2022/10/02 04:35:20;;;;;;;7.73;1.70;;;18.80;68.50;;;;;;5041702;28;20870;-48
2022/10/02 04:38:22;;;;;;;4.67;2.50;;;18.90;68.20;;;;;;5045059;28;20207;-48
2022/10/02 04:41:00;;;;;;;3.37;1.43;;;18.90;68.30;;;;;;5040158;28;20538;-50
2022/10/02 04:43:38;;;;;;;5.00;2.00;;;18.90;68.30;;;;;;5045255;28;22822;-48
2022/10/02 04:46:15;;;;;;;7.33;2.00;;;18.90;68.80;;;;;;5042354;28;20492;-49
2022/10/02 04:49:13;;;;;;;3.03;1.70;;;18.90;68.40;;;;;;5031803;28;20456;-47
2022/10/02 04:52:02;;;;;;;4.90;1.63;;;18.90;68.40;;;;;;5039199;28;20962;-48
2022/10/02 04:54:39;;;;;;;4.10;1.70;;;18.90;68.10;;;;;;5045275;28;20452;-48
2022/10/02 04:57:23;;;;;;;6.37;1.90;;;18.80;67.80;;;;;;5036066;28;20470;-48
2022/10/02 05:00:16;;;;;;;6.77;2.10;;;18.90;68.00;;;;;;5045765;28;20443;-49
2022/10/02 05:03:01;;;;;;;5.83;1.73;;;18.90;68.00;;;;;;5040474;28;20439;-47
2022/10/02 05:05:29;;;;;;;6.63;2.00;;;18.90;68.00;;;;;;5037376;28;20479;-48
2022/10/02 05:08:04;;;;;;;6.97;1.63;;;18.90;67.70;;;;;;5046701;28;20443;-48
2022/10/02 05:10:38;;;;;;;3.40;2.00;;;18.80;67.60;;;;;;5045449;28;20443;-48
2022/10/02 05:13:17;;;;;;;5.60;1.87;;;18.80;67.80;;;;;;5047333;28;20936;-48
2022/10/02 05:16:10;;;;;;;6.73;2.53;;;18.80;67.60;;;;;;5040191;28;20589;-48
2022/10/02 05:19:00;;;;;;;2.57;2.27;;;18.90;67.20;;;;;;5036912;28;20668;-48
2022/10/02 05:21:48;;;;;;;5.97;1.30;;;19.00;66.90;;;;;;5043467;28;20954;-47
2022/10/02 05:25:08;;;;;;;4.07;1.73;;;18.90;67.00;;;;;;5047965;28;20435;-47
2022/10/02 05:27:53;;;;;;;3.13;1.77;;;19.00;67.00;;;;;;4960827;28;20457;-48
2022/10/02 05:30:19;;;;;;;4.23;2.03;;;19.00;67.00;;;;;;4998588;28;20481;-48
2022/10/02 05:32:57;;;;;;;2.60;1.80;;;19.00;66.80;;;;;;5050435;28;20439;-48
2022/10/02 05:35:35;;;;;;;6.47;2.27;;;19.10;67.10;;;;;;5048151;28;20199;-48
2022/10/02 05:38:16;;;;;;;5.03;1.90;;;19.10;67.30;;;;;;5051411;28;20838;-49
2022/10/02 05:40:55;;;;;;;5.47;2.03;;;19.10;67.40;;;;;;5045709;28;20464;-48
2022/10/02 05:43:31;;;;;;;7.00;2.47;;;19.10;67.70;;;;;;5046641;28;20830;-49
2022/10/02 05:46:20;;;;;;;5.20;2.57;;;19.10;68.30;;;;;;5046425;28;20568;-49
2022/10/02 05:48:53;;;;;;;2.80;2.60;;;19.00;68.20;;;;;;5044458;28;20500;-48
2022/10/02 05:51:28;;;;;;;4.57;2.80;;;19.00;68.50;;;;;;5047603;28;20857;-49
2022/10/02 05:54:03;;;;;;;5.20;4.03;;;19.00;68.60;;;;;;5046635;28;20533;-47
2022/10/02 05:56:37;;;;;;;6.10;3.87;;;19.00;68.70;;;;;;5051338;28;20442;-48
2022/10/02 05:59:22;;;;;;;7.93;4.40;;;19.00;68.80;;;;;;5051682;28;20451;-47
2022/10/02 06:01:49;;;;;;;14.73;3.93;;;19.00;69.20;;;;;;5047627;28;20442;-49
2022/10/02 06:04:30;;;;;;;9.40;2.47;;;19.10;69.70;;;;;;5039916;28;20447;-48
2022/10/02 06:07:02;;;;;;;7.10;2.47;;;19.10;69.60;;;;;;5045973;28;20499;-48
2022/10/02 06:10:00;;;;;;;5.27;2.63;;;19.20;69.40;;;;;;5049006;28;20446;-48
2022/10/02 06:12:33;;;;;;;4.17;2.10;;;19.30;69.00;;;;;;5047632;28;20450;-48
2022/10/02 06:15:25;;;;;;;6.70;2.80;;;19.30;68.50;;;;;;5049114;28;20453;-48
2022/10/02 06:18:18;;;;;;;6.77;4.63;;;19.30;68.30;;;;;;5046695;28;20529;-48
2022/10/02 06:21:06;;;;;;;5.70;3.63;;;19.30;68.30;;;;;;5042622;28;20577;-49
2022/10/02 06:23:42;;;;;;;9.33;3.30;;;19.20;68.30;;;;;;5013701;28;20806;-48
2022/10/02 06:26:32;;;;;;;5.67;3.73;;;19.20;68.60;;;;;;5047788;28;20486;-48
2022/10/02 06:29:23;;;;;;;6.23;3.43;;;19.20;68.90;;;;;;5040610;28;20574;-49
2022/10/02 06:32:11;;;;;;;4.97;3.67;;;19.30;69.00;;;;;;5045711;28;20526;-48
2022/10/02 06:34:37;;;;;;;6.10;3.90;;;19.10;68.90;;;;;;5049470;28;20451;-48
2022/10/02 06:37:24;;;;;;;6.67;3.80;;;19.20;69.20;;;;;;5049735;28;20775;-48
2022/10/02 06:40:10;;;;;;;7.27;3.80;;;19.30;69.00;;;;;;5046464;28;20685;-48
2022/10/02 06:43:04;;;;;;;4.70;2.90;;;19.30;69.10;;;;;;5050236;28;20537;-48
2022/10/02 06:45:47;;;;;;;7.57;3.60;;;19.30;69.10;;;;;;5041962;28;20490;-47
2022/10/02 06:48:45;;;;;;;2.90;2.03;;;19.30;69.10;;;;;;5049866;28;20461;-49
2022/10/02 06:51:23;;;;;;;3.87;2.50;;;19.30;69.00;;;;;;5041996;28;20450;-47
2022/10/02 06:53:55;;;;;;;8.00;3.33;;;19.40;69.30;;;;;;5048125;28;20439;-50
2022/10/02 06:56:46;;;;;;;4.93;3.30;;;19.40;68.80;;;;;;5050511;28;20450;-48
2022/10/02 06:59:38;;;;;;;12.20;8.73;;;19.40;68.60;;;;;;5049336;28;20439;-48
2022/10/02 07:02:26;;;;;;;8.40;7.53;;;19.30;68.60;;;;;;5044825;28;20485;-48
2022/10/02 07:05:16;;;;;;;15.07;9.57;;;19.30;69.40;;;;;;5048612;28;20470;-49
2022/10/02 07:08:03;;;;;;;6.50;4.43;;;19.20;69.40;;;;;;5047578;28;20934;-48
2022/10/02 07:10:42;;;;;;;5.83;3.20;;;19.20;69.50;;;;;;5044125;28;20448;-50
2022/10/02 07:13:34;;;;;;;5.60;2.93;;;19.10;69.50;;;;;;5047890;28;20533;-49
2022/10/02 07:16:30;;;;;;;6.90;2.70;;;19.10;70.20;;;;;;5040843;28;20779;-50
2022/10/02 07:19:08;;;;;;;6.33;3.37;;;19.00;70.50;;;;;;5049693;28;20462;-48
2022/10/02 07:21:42;;;;;;;3.97;2.83;;;19.00;70.70;;;;;;5049646;28;20454;-49
2022/10/02 07:24:34;;;;;;;4.73;2.97;;;19.00;70.70;;;;;;5049683;28;21246;-47
2022/10/02 07:27:09;;;;;;;4.53;2.70;;;19.00;70.80;;;;;;5045080;28;20463;-55
2022/10/02 07:30:02;;;;;;;7.63;3.30;;;19.00;70.90;;;;;;5050214;28;20479;-49
2022/10/02 07:32:48;;;;;;;10.50;3.40;;;19.10;71.30;;;;;;5047196;28;20459;-48
2022/10/02 07:35:36;;;;;;;7.00;3.17;;;19.10;71.20;;;;;;5040068;28;20475;-50
2022/10/02 07:38:42;;;;;;;6.80;6.17;;;19.10;70.80;;;;;;5043914;28;20459;-49
2022/10/02 07:41:45;;;;;;;4.47;4.07;;;19.10;70.60;;;;;;5026243;28;20458;-47
2022/10/02 07:44:30;;;;;;;18.33;16.53;;;19.20;70.80;;;;;;5042293;28;20868;-50
2022/10/02 07:46:58;;;;;;;13.47;11.97;;;19.10;70.80;;;;;;5050311;28;20533;-48
2022/10/02 07:49:31;;;;;;;11.17;10.20;;;19.10;70.90;;;;;;5044329;28;20450;-47
2022/10/02 07:52:06;;;;;;;12.83;10.07;;;19.10;71.30;;;;;;5050484;28;20459;-47
2022/10/02 07:54:47;;;;;;;10.00;7.60;;;19.20;71.60;;;;;;5050598;28;20812;-50
2022/10/02 07:57:19;;;;;;;8.83;5.87;;;19.20;71.50;;;;;;5046478;28;20664;-47
2022/10/02 07:59:47;;;;;;;7.80;5.90;;;19.20;71.30;;;;;;5045398;28;20927;-47
2022/10/02 08:02:28;;;;;;;7.63;4.30;;;19.30;71.30;;;;;;5045492;28;20442;-47
2022/10/02 08:05:01;;;;;;;5.30;4.80;;;19.30;71.40;;;;;;5048981;28;20597;-47
2022/10/02 08:07:28;;;;;;;4.50;4.10;;;19.30;71.50;;;;;;5046951;28;20451;-49
2022/10/02 08:09:56;;;;;;;6.40;3.93;;;19.30;71.40;;;;;;5049582;28;21184;-51
2022/10/02 08:12:39;;;;;;;4.37;3.47;;;19.30;71.40;;;;;;5045909;28;20439;-48
2022/10/02 08:15:14;;;;;;;10.17;8.80;;;19.30;71.20;;;;;;5048588;28;20584;-48
2022/10/02 08:17:51;;;;;;;9.40;5.40;;;19.30;71.20;;;;;;5036870;28;24875;-50
2022/10/02 08:20:31;;;;;;;4.70;3.00;;;19.30;71.20;;;;;;5047366;28;20794;-49
2022/10/02 08:23:13;;;;;;;8.40;4.43;;;19.20;71.30;;;;;;5043321;28;20494;-47
2022/10/02 08:25:51;;;;;;;6.10;3.90;;;19.20;71.40;;;;;;5038639;28;20536;-48
2022/10/02 08:28:34;;;;;;;5.83;3.30;;;19.20;71.70;;;;;;5046373;28;20435;-50
2022/10/02 08:31:00;;;;;;;5.00;2.77;;;19.10;72.60;;;;;;5041792;28;20448;-48
2022/10/02 08:33:30;;;;;;;4.03;3.37;;;19.10;72.60;;;;;;5040968;28;21020;-47
2022/10/02 08:36:18;;;;;;;6.90;2.90;;;19.20;72.80;;;;;;5048658;28;20480;-48
2022/10/02 08:38:53;;;;;;;4.97;3.33;;;19.30;72.60;;;;;;5040782;28;20546;-47
2022/10/02 08:41:28;;;;;;;6.30;3.80;;;19.30;72.60;;;;;;5042745;28;20447;-48
2022/10/02 08:44:17;;;;;;;7.50;4.37;;;19.30;72.90;;;;;;5040733;28;20475;-48
2022/10/02 08:47:04;;;;;;;5.00;3.53;;;19.30;72.80;;;;;;5040218;28;20490;-47
2022/10/02 08:49:45;;;;;;;8.83;3.03;;;19.20;72.60;;;;;;5040351;28;20845;-47
2022/10/02 08:52:19;;;;;;;3.80;3.40;;;19.00;73.90;;;;;;5042328;28;20446;-49
2022/10/02 08:55:24;;;;;;;6.30;4.53;;;19.10;73.90;;;;;;5044285;28;20466;-47
2022/10/02 08:58:20;;;;;;;6.60;3.63;;;19.30;73.20;;;;;;5047330;28;20480;-50
2022/10/02 09:01:10;;;;;;;7.30;3.60;;;19.10;73.30;;;;;;5043125;28;20446;-47
2022/10/02 09:04:14;;;;;;;3.80;2.80;;;19.20;73.80;;;;;;5049710;28;20465;-48
2022/10/02 09:06:57;;;;;;;4.33;3.03;;;19.30;73.50;;;;;;5049105;28;20494;-51
2022/10/02 09:10:27;;;;;;;8.57;3.70;;;19.40;73.10;;;;;;5048440;28;20950;-49
2022/10/02 09:13:17;;;;;;;4.83;2.90;;;19.30;74.30;;;;;;4948971;28;20473;-48
2022/10/02 09:16:29;;;;;;;6.17;3.00;;;19.40;72.60;;;;;;4948632;28;20444;-50
2022/10/02 09:19:26;;;;;;;3.90;3.20;;;19.50;72.20;;;;;;4961114;28;21817;-52
2022/10/02 09:21:58;;;;;;;7.77;4.57;;;19.70;72.00;;;;;;4960020;28;20542;-52
2022/10/02 09:24:45;;;;;;;7.13;4.17;;;19.50;72.70;;;;;;5024530;28;20873;-51
2022/10/02 09:27:42;;;;;;;8.43;3.60;;;19.40;73.70;;;;;;5043236;28;20450;-51
2022/10/02 09:30:47;;;;;;;6.37;3.10;;;19.60;72.50;;;;;;5046026;28;20993;-50
2022/10/02 09:33:34;;;;;;;6.60;2.53;;;19.70;72.50;;;;;;5044554;28;20447;-50
2022/10/02 09:36:08;;;;;;;5.93;2.60;;;19.80;72.20;;;;;;5041285;28;20478;-51
2022/10/02 09:38:46;;;;;;;3.70;3.17;;;19.80;72.00;;;;;;5043154;28;20450;-50
2022/10/02 09:41:28;;;;;;;6.90;3.00;;;19.80;72.40;;;;;;5046427;28;20549;-51
2022/10/02 09:44:06;;;;;;;4.90;2.83;;;19.70;72.80;;;;;;5045782;28;20695;-51
2022/10/02 09:46:34;;;;;;;3.87;2.53;;;19.60;73.30;;;;;;5039102;28;20534;-48
2022/10/02 09:49:23;;;;;;;3.73;2.43;;;19.50;73.70;;;;;;5043043;28;20447;-50
2022/10/02 09:52:28;;;;;;;4.20;2.20;;;19.30;74.30;;;;;;5040929;28;20451;-48
2022/10/02 09:55:09;;;;;;;2.87;2.03;;;19.30;73.90;;;;;;5039112;28;20443;-47
2022/10/02 09:57:55;;;;;;;6.30;4.27;;;19.20;74.40;;;;;;5043885;28;20525;-48
2022/10/02 10:00:50;;;;;;;2.70;2.10;;;19.10;74.60;;;;;;5045122;28;20447;-48
2022/10/02 10:03:15;;;;;;;2.80;2.03;;;19.20;74.30;;;;;;5036067;28;20458;-48
2022/10/02 10:05:53;;;;;;;3.63;2.37;;;19.10;73.70;;;;;;5047930;28;20482;-47
2022/10/02 10:08:55;;;;;;;3.03;1.90;;;19.10;73.80;;;;;;5044367;28;20204;-48
2022/10/02 10:11:20;;;;;;;1.73;1.63;;;19.20;73.40;;;;;;5043780;28;20482;-47
2022/10/02 10:14:04;;;;;;;2.47;2.27;;;19.20;73.30;;;;;;5046291;28;20860;-48
2022/10/02 10:17:07;;;;;;;1.90;1.53;;;19.10;73.30;;;;;;5048736;28;20648;-48
2022/10/02 10:19:49;;;;;;;2.47;2.27;;;19.20;73.60;;;;;;5051198;28;20455;-48
2022/10/02 10:22:45;;;;;;;2.70;2.50;;;19.20;73.50;;;;;;5050969;28;20599;-49
2022/10/02 10:25:17;;;;;;;8.30;2.57;;;19.30;73.50;;;;;;5049845;28;20521;-47
2022/10/02 10:27:58;;;;;;;3.13;2.20;;;19.20;74.30;;;;;;5050580;28;20503;-47
2022/10/02 10:30:42;;;;;;;1.77;1.40;;;19.40;74.30;;;;;;5053575;28;20518;-48
2022/10/02 10:33:23;;;;;;;3.00;2.00;;;19.50;74.00;;;;;;5048110;28;20448;-47
2022/10/02 10:36:01;;;;;;;2.17;2.07;;;19.50;73.60;;;;;;5049370;28;20442;-52
2022/10/02 10:38:32;;;;;;;2.47;2.27;;;19.50;73.70;;;;;;5051369;28;20504;-49
2022/10/02 10:41:09;;;;;;;2.60;2.40;;;19.70;73.80;;;;;;5039356;28;20431;-47
2022/10/02 10:43:55;;;;;;;2.07;1.70;;;19.90;73.70;;;;;;5048422;28;20834;-48
2022/10/02 10:47:01;;;;;;;3.13;2.93;;;19.90;73.00;;;;;;5044833;28;20919;-48
2022/10/02 10:49:30;;;;;;;1.40;1.30;;;20.00;72.80;;;;;;5050820;28;20554;-48
2022/10/02 10:52:27;;;;;;;2.13;1.77;;;20.10;72.40;;;;;;5049091;28;20458;-47
2022/10/02 10:55:19;;;;;;;2.57;2.00;;;20.20;71.80;;;;;;5042114;28;20454;-47
2022/10/02 10:58:08;;;;;;;2.83;1.57;;;19.80;71.70;;;;;;5045863;28;20488;-49
2022/10/02 11:00:59;;;;;;;3.27;2.30;;;19.90;72.10;;;;;;5043651;28;20467;-49
2022/10/02 11:03:43;;;;;;;1.33;1.23;;;20.00;71.70;;;;;;5048806;28;20946;-50
2022/10/02 11:06:34;;;;;;;3.93;3.53;;;20.10;71.70;;;;;;5043494;28;21313;-50
2022/10/02 11:09:22;;;;;;;2.83;2.43;;;20.10;71.90;;;;;;5047154;28;20443;-51
2022/10/02 11:12:15;;;;;;;2.13;1.30;;;20.10;71.90;;;;;;5042803;28;20447;-50
2022/10/02 11:14:52;;;;;;;1.37;1.13;;;20.10;71.30;;;;;;5048868;28;20459;-50
2022/10/02 11:18:02;;;;;;;1.70;1.43;;;20.10;70.90;;;;;;5044067;28;20938;-48
2022/10/02 11:20:42;;;;;;;1.37;1.27;;;20.10;70.30;;;;;;5040893;28;20447;-50
2022/10/02 11:23:25;;;;;;;0.90;0.90;;;20.10;70.20;;;;;;5043628;28;20891;-50
2022/10/02 11:26:16;;;;;;;0.87;0.87;;;20.10;70.10;;;;;;5046593;28;20486;-49
2022/10/02 11:29:19;;;;;;;1.00;0.93;;;20.00;70.10;;;;;;5033490;28;20570;-52
2022/10/02 11:32:27;;;;;;;0.87;0.77;;;20.00;70.00;;;;;;5055054;28;20459;-52
2022/10/02 11:35:10;;;;;;;0.80;0.80;;;19.80;70.40;;;;;;5043525;28;20493;-51
2022/10/02 11:38:08;;;;;;;0.80;0.80;;;19.90;70.80;;;;;;5046807;28;20446;-47
2022/10/02 11:41:19;;;;;;;1.40;1.30;;;19.90;70.50;;;;;;5042521;28;20453;-51
2022/10/02 11:44:09;;;;;;;1.40;1.30;;;19.90;70.50;;;;;;4998018;28;20465;-51
2022/10/02 11:46:56;;;;;;;1.17;1.07;;;20.00;70.50;;;;;;5046078;28;20527;-50
2022/10/02 11:49:25;;;;;;;1.40;1.20;;;20.00;70.10;;;;;;5043359;28;20470;-49
2022/10/02 11:52:21;;;;;;;1.13;1.03;;;20.10;70.60;;;;;;5048614;28;20443;-52
2022/10/02 11:54:56;;;;;;;0.90;0.90;;;20.00;69.50;;;;;;5042792;28;20494;-48
2022/10/02 11:57:49;;;;;;;3.10;1.17;;;20.00;69.70;;;;;;5048040;28;20497;-49
2022/10/02 12:00:43;;;;;;;1.50;1.37;;;20.00;69.90;;;;;;5038604;28;20450;-47
2022/10/02 12:03:30;;;;;;;1.73;1.37;;;19.90;69.50;;;;;;5036514;28;21452;-48
2022/10/02 12:06:02;;;;;;;1.37;1.27;;;19.80;69.50;;;;;;5045862;28;20491;-48
2022/10/02 12:08:53;;;;;;;1.20;1.10;;;19.90;69.70;;;;;;5047883;28;20466;-47
2022/10/02 12:11:49;;;;;;;1.00;1.00;;;20.00;69.90;;;;;;5041232;28;20451;-49
2022/10/02 12:14:29;;;;;;;1.57;1.47;;;20.00;70.00;;;;;;5041316;28;20451;-47
2022/10/02 12:17:15;;;;;;;1.30;1.20;;;19.80;70.10;;;;;;5041588;28;20455;-48
2022/10/02 12:29:24;;;;;;;1.87;1.00;;;20.00;69.90;;;;;;5047428;28;20968;-48
2022/10/02 12:32:14;;;;;;;1.57;1.40;;;20.10;69.90;;;;;;5052714;28;21150;-48
2022/10/02 12:35:11;;;;;;;2.03;1.60;;;20.10;69.50;;;;;;5045453;28;20448;-48
2022/10/02 12:38:04;;;;;;;2.50;2.33;;;20.20;69.60;;;;;;5037618;28;20459;-50
2022/10/02 12:40:39;;;;;;;2.70;2.50;;;20.30;69.50;;;;;;5040442;28;20467;-47
2022/10/02 12:43:15;;;;;;;2.63;2.43;;;20.40;69.20;;;;;;5042431;28;21000;-48
2022/10/02 12:45:59;;;;;;;1.40;1.30;;;20.40;69.20;;;;;;5031102;28;20836;-47
2022/10/02 12:48:44;;;;;;;1.67;1.57;;;20.40;68.90;;;;;;5040055;28;20446;-47
2022/10/02 12:51:22;;;;;;;2.80;1.77;;;20.40;68.80;;;;;;5050198;28;20484;-51
2022/10/02 12:54:18;;;;;;;2.20;1.70;;;20.30;69.10;;;;;;5050008;28;20478;-52
2022/10/02 13:00:15;;;;;;;1.97;1.60;;;20.20;70.20;;;;;;5010289;28;20498;-48
2022/10/02 13:03:00;;;;;;;1.50;1.40;;;20.20;70.20;;;;;;5047007;28;20453;-47
2022/10/02 13:05:39;;;;;;;1.70;1.33;;;20.10;70.10;;;;;;5044868;28;20475;-47
2022/10/02 13:08:30;;;;;;;1.33;1.23;;;20.10;70.20;;;;;;5041705;28;20538;-49
2022/10/02 13:11:06;;;;;;;3.27;2.93;;;20.10;70.30;;;;;;5043509;28;20451;-47
2022/10/02 13:13:59;;;;;;;2.63;2.20;;;20.10;70.70;;;;;;5045421;28;20805;-48
2022/10/02 13:16:43;;;;;;;1.70;1.60;;;20.00;71.30;;;;;;5048464;28;20448;-47
2022/10/02 13:19:18;;;;;;;1.93;1.77;;;20.00;71.40;;;;;;5047379;28;21229;-47
2022/10/02 13:22:02;;;;;;;1.30;1.20;;;20.00;71.40;;;;;;5045771;28;20977;-48
2022/10/02 13:24:57;;;;;;;2.60;2.40;;;20.00;71.60;;;;;;5038195;28;20454;-47
2022/10/02 13:27:48;;;;;;;8.60;1.70;;;20.10;71.70;;;;;;5040336;28;20944;-47
2022/10/02 13:30:19;;;;;;;1.33;1.23;;;20.10;71.50;;;;;;5044724;28;20836;-48
2022/10/02 13:33:04;;;;;;;1.20;1.10;;;20.00;71.80;;;;;;5046728;28;20451;-47
2022/10/02 13:35:45;;;;;;;0.80;0.80;;;20.00;72.00;;;;;;5046644;28;20937;-48
2022/10/02 13:38:29;;;;;;;1.37;1.27;;;20.00;72.00;;;;;;5041980;28;20455;-47
2022/10/02 13:41:08;;;;;;;1.17;1.07;;;20.00;71.80;;;;;;5048119;28;20513;-47
2022/10/02 13:44:02;;;;;;;1.30;1.20;;;19.90;71.70;;;;;;5048515;28;20510;-48
2022/10/02 13:47:18;;;;;;;1.30;1.20;;;20.00;71.60;;;;;;5047812;28;20486;-46
2022/10/02 13:50:09;;;;;;;0.80;0.80;;;19.90;71.40;;;;;;5029498;28;20510;-49
2022/10/02 13:53:13;;;;;;;0.90;0.90;;;19.90;71.00;;;;;;5041973;28;20449;-49
2022/10/02 13:55:50;;;;;;;1.47;0.93;;;19.90;71.10;;;;;;4944812;28;20565;-48
2022/10/02 13:58:38;;;;;;;1.00;1.00;;;19.90;71.20;;;;;;5034104;28;20443;-47
2022/10/02 14:01:25;;;;;;;1.03;0.93;;;19.90;71.10;;;;;;5051863;28;20451;-47
2022/10/02 14:03:56;;;;;;;1.10;1.00;;;19.90;71.00;;;;;;5049428;28;20446;-47
2022/10/02 14:06:29;;;;;;;1.00;0.90;;;19.90;71.30;;;;;;5048371;28;20483;-47
2022/10/02 14:09:19;;;;;;;0.80;0.80;;;20.00;71.30;;;;;;5042497;28;20443;-48
2022/10/02 14:12:00;;;;;;;1.27;0.87;;;20.00;71.40;;;;;;5051656;28;20442;-48
2022/10/02 14:14:37;;;;;;;0.60;0.60;;;20.00;71.30;;;;;;5039580;28;20452;-47
2022/10/02 14:17:15;;;;;;;1.00;0.90;;;19.90;71.00;;;;;;5051223;28;20677;-48